sensor_id;sensor_type;location;lat;lon;timestamp;pressure;altitude;pressure_sealevel;temperature;humidity
63027;BME280;59113;51.434;-2.004;2022-08-02T07:16:34;100677.06;;;20.78;100.00
63027;BME280;59113;51.434;-2.004;2022-08-02T07:18:59;100681.41;;;21.06;100.00
63027;BME280;59113;51.434;-2.004;2022-08-02T07:27:46;100694.72;;;20.71;100.00
63027;BME280;59113;51.434;-2.004;2022-08-02T07:33:04;100691.72;;;20.72;100.00
63027;BME280;59113;51.434;-2.004;2022-08-02T07:38:31;100685.75;;;21.02;100.00
63027;BME280;59113;51.434;-2.004;2022-08-02T07:40:57;100686.31;;;21.04;100.00
63027;BME280;59113;51.434;-2.004;2022-08-02T07:43:22;100694.16;;;21.01;100.00
63027;BME280;59113;51.434;-2.004;2022-08-02T07:49:21;100697.66;;;21.23;100.00
63027;BME280;59113;51.434;-2.004;2022-08-02T07:51:46;100679.34;;;21.24;100.00
63027;BME280;59113;51.434;-2.004;2022-08-02T07:54:12;100691.56;;;21.16;100.00
63027;BME280;59113;51.434;-2.004;2022-08-02T08:00:13;100686.31;;;21.37;100.00
63027;BME280;59113;51.434;-2.004;2022-08-02T08:02:40;100697.00;;;21.43;100.00
63027;BME280;59113;51.434;-2.004;2022-08-02T08:08:01;100698.25;;;21.68;100.00
63027;BME280;59113;51.434;-2.004;2022-08-02T08:10:27;100702.09;;;21.67;100.00
63027;BME280;59113;51.434;-2.004;2022-08-02T08:12:52;100707.03;;;21.32;100.00
63027;BME280;59113;51.434;-2.004;2022-08-02T08:19:00;100701.69;;;21.48;100.00
63027;BME280;59113;51.434;-2.004;2022-08-02T08:21:47;100704.56;;;21.68;100.00
63027;BME280;59113;51.434;-2.004;2022-08-02T08:28:10;100682.81;;;21.93;100.00
63027;BME280;59113;51.434;-2.004;2022-08-02T08:30:35;100688.00;;;21.90;100.00
63027;BME280;59113;51.434;-2.004;2022-08-02T08:33:01;100691.59;;;22.01;100.00
63027;BME280;59113;51.434;-2.004;2022-08-02T08:38:49;100683.78;;;22.14;100.00
63027;BME280;59113;51.434;-2.004;2022-08-02T08:41:18;100684.13;;;22.43;100.00
63027;BME280;59113;51.434;-2.004;2022-08-02T08:43:45;100690.72;;;22.47;100.00
63027;BME280;59113;51.434;-2.004;2022-08-02T08:49:40;100668.84;;;22.58;100.00
63027;BME280;59113;51.434;-2.004;2022-08-02T08:52:10;100680.09;;;22.76;100.00
63027;BME280;59113;51.434;-2.004;2022-08-02T08:54:37;100681.19;;;22.65;100.00
63027;BME280;59113;51.434;-2.004;2022-08-02T09:00:39;100665.00;;;22.59;100.00
63027;BME280;59113;51.434;-2.004;2022-08-02T09:03:08;100671.09;;;22.91;100.00
63027;BME280;59113;51.434;-2.004;2022-08-02T09:09:03;100674.69;;;23.22;100.00
63027;BME280;59113;51.434;-2.004;2022-08-02T09:11:28;100665.34;;;23.03;100.00
63027;BME280;59113;51.434;-2.004;2022-08-02T09:13:56;100667.28;;;23.38;100.00
63027;BME280;59113;51.434;-2.004;2022-08-02T09:16:31;100678.16;;;23.79;100.00
63027;BME280;59113;51.434;-2.004;2022-08-02T09:18:57;100665.19;;;24.05;100.00
63027;BME280;59113;51.434;-2.004;2022-08-02T09:21:33;100660.91;;;24.38;100.00
63027;BME280;59113;51.434;-2.004;2022-08-02T09:23:59;100663.88;;;24.47;100.00
63027;BME280;59113;51.434;-2.004;2022-08-02T09:29:48;100667.53;;;24.37;100.00
63027;BME280;59113;51.434;-2.004;2022-08-02T09:32:13;100674.34;;;23.75;100.00
63027;BME280;59113;51.434;-2.004;2022-08-02T09:34:51;100666.94;;;23.70;100.00
63027;BME280;59113;51.434;-2.004;2022-08-02T09:40:46;100666.16;;;23.59;100.00
63027;BME280;59113;51.434;-2.004;2022-08-02T09:43:11;100667.22;;;23.74;100.00
63027;BME280;59113;51.434;-2.004;2022-08-02T09:49:03;100662.16;;;24.06;100.00
63027;BME280;59113;51.434;-2.004;2022-08-02T09:54:16;100666.59;;;23.92;100.00
63027;BME280;59113;51.434;-2.004;2022-08-02T09:57:00;100666.06;;;23.90;100.00
63027;BME280;59113;51.434;-2.004;2022-08-02T09:59:26;100667.41;;;23.98;100.00
63027;BME280;59113;51.434;-2.004;2022-08-02T10:01:54;100677.00;;;24.05;100.00
63027;BME280;59113;51.434;-2.004;2022-08-02T10:04:22;100682.53;;;23.85;100.00
63027;BME280;59113;51.434;-2.004;2022-08-02T10:10:17;100666.41;;;23.73;100.00
63027;BME280;59113;51.434;-2.004;2022-08-02T10:12:43;100666.69;;;23.36;100.00
63027;BME280;59113;51.434;-2.004;2022-08-02T10:15:09;100675.13;;;23.85;100.00
63027;BME280;59113;51.434;-2.004;2022-08-02T10:17:34;100675.31;;;24.04;100.00
63027;BME280;59113;51.434;-2.004;2022-08-02T10:20:01;100674.44;;;24.19;100.00
63027;BME280;59113;51.434;-2.004;2022-08-02T10:22:26;100681.00;;;24.33;100.00
63027;BME280;59113;51.434;-2.004;2022-08-02T10:24:53;100681.81;;;24.39;100.00
63027;BME280;59113;51.434;-2.004;2022-08-02T10:30:55;100673.53;;;24.44;100.00
63027;BME280;59113;51.434;-2.004;2022-08-02T10:33:22;100674.66;;;24.38;100.00
63027;BME280;59113;51.434;-2.004;2022-08-02T10:39:13;100663.41;;;24.34;100.00
63027;BME280;59113;51.434;-2.004;2022-08-02T10:41:43;100674.34;;;24.45;100.00
63027;BME280;59113;51.434;-2.004;2022-08-02T10:44:23;100664.38;;;24.59;100.00
63027;BME280;59113;51.434;-2.004;2022-08-02T10:53:32;100677.09;;;26.05;100.00
63027;BME280;59113;51.434;-2.004;2022-08-02T10:56:01;100672.13;;;26.69;100.00
63027;BME280;59113;51.434;-2.004;2022-08-02T10:58:29;100674.56;;;27.08;100.00
63027;BME280;59113;51.434;-2.004;2022-08-02T11:01:31;100675.59;;;27.58;100.00
63027;BME280;59113;51.434;-2.004;2022-08-02T11:03:58;100672.09;;;27.53;100.00
63027;BME280;59113;51.434;-2.004;2022-08-02T11:06:30;100682.03;;;27.21;100.00
63027;BME280;59113;51.434;-2.004;2022-08-02T11:09:27;100676.28;;;26.23;100.00
63027;BME280;59113;51.434;-2.004;2022-08-02T11:12:10;100669.19;;;25.45;100.00
63027;BME280;59113;51.434;-2.004;2022-08-02T11:14:39;100677.09;;;24.89;100.00
63027;BME280;59113;51.434;-2.004;2022-08-02T11:20:33;100670.09;;;24.62;100.00
63027;BME280;59113;51.434;-2.004;2022-08-02T11:23:36;100686.25;;;24.20;100.00
63027;BME280;59113;51.434;-2.004;2022-08-02T11:29:38;100680.31;;;23.92;100.00
63027;BME280;59113;51.434;-2.004;2022-08-02T11:32:05;100679.69;;;24.10;100.00
63027;BME280;59113;51.434;-2.004;2022-08-02T11:34:31;100668.72;;;24.10;100.00
63027;BME280;59113;51.434;-2.004;2022-08-02T11:37:04;100672.22;;;24.21;100.00
63027;BME280;59113;51.434;-2.004;2022-08-02T11:39:29;100667.94;;;24.05;100.00
63027;BME280;59113;51.434;-2.004;2022-08-02T11:41:57;100663.16;;;24.31;100.00
63027;BME280;59113;51.434;-2.004;2022-08-02T11:44:24;100670.81;;;24.39;100.00
63027;BME280;59113;51.434;-2.004;2022-08-02T11:50:13;100671.94;;;24.33;100.00
63027;BME280;59113;51.434;-2.004;2022-08-02T11:52:38;100657.16;;;24.19;100.00
63027;BME280;59113;51.434;-2.004;2022-08-02T11:55:07;100660.16;;;24.71;100.00
63027;BME280;59113;51.434;-2.004;2022-08-02T12:00:55;100657.56;;;25.24;100.00
63027;BME280;59113;51.434;-2.004;2022-08-02T12:03:20;100655.84;;;25.87;100.00
63027;BME280;59113;51.434;-2.004;2022-08-02T12:05:51;100657.34;;;25.98;100.00
63027;BME280;59113;51.434;-2.004;2022-08-02T12:08:17;100647.69;;;25.23;100.00
63027;BME280;59113;51.434;-2.004;2022-08-02T12:10:49;100653.72;;;25.25;100.00
63027;BME280;59113;51.434;-2.004;2022-08-02T12:13:22;100650.66;;;25.56;100.00
63027;BME280;59113;51.434;-2.004;2022-08-02T12:15:53;100657.69;;;26.15;100.00
63027;BME280;59113;51.434;-2.004;2022-08-02T12:18:47;100654.09;;;26.76;100.00
63027;BME280;59113;51.434;-2.004;2022-08-02T12:21:38;100662.09;;;27.43;100.00
63027;BME280;59113;51.434;-2.004;2022-08-02T12:24:04;100648.53;;;27.74;100.00
63027;BME280;59113;51.434;-2.004;2022-08-02T12:26:29;100650.22;;;28.25;100.00
63027;BME280;59113;51.434;-2.004;2022-08-02T12:28:56;100655.25;;;28.50;100.00
63027;BME280;59113;51.434;-2.004;2022-08-02T12:31:38;100658.84;;;28.37;100.00
63027;BME280;59113;51.434;-2.004;2022-08-02T12:34:11;100655.03;;;26.85;100.00
63027;BME280;59113;51.434;-2.004;2022-08-02T12:36:39;100666.59;;;26.87;100.00
63027;BME280;59113;51.434;-2.004;2022-08-02T12:39:10;100659.09;;;25.89;100.00
63027;BME280;59113;51.434;-2.004;2022-08-02T12:41:37;100653.13;;;25.58;100.00
63027;BME280;59113;51.434;-2.004;2022-08-02T12:44:03;100647.13;;;25.50;100.00
63027;BME280;59113;51.434;-2.004;2022-08-02T12:46:29;100636.06;;;25.32;100.00
63027;BME280;59113;51.434;-2.004;2022-08-02T12:48:56;100646.13;;;25.12;100.00
63027;BME280;59113;51.434;-2.004;2022-08-02T12:53:52;100643.00;;;24.90;100.00
63027;BME280;59113;51.434;-2.004;2022-08-02T12:59:41;100641.59;;;24.58;100.00
63027;BME280;59113;51.434;-2.004;2022-08-02T13:02:10;100648.78;;;24.49;100.00
63027;BME280;59113;51.434;-2.004;2022-08-02T13:04:36;100648.28;;;24.42;100.00
63027;BME280;59113;51.434;-2.004;2022-08-02T13:07:05;100648.03;;;24.28;100.00
63027;BME280;59113;51.434;-2.004;2022-08-02T13:09:38;100638.53;;;24.10;100.00
63027;BME280;59113;51.434;-2.004;2022-08-02T13:12:05;100633.72;;;23.82;100.00
63027;BME280;59113;51.434;-2.004;2022-08-02T13:14:31;100652.38;;;23.80;100.00
63027;BME280;59113;51.434;-2.004;2022-08-02T13:20:31;100655.16;;;23.70;100.00
63027;BME280;59113;51.434;-2.004;2022-08-02T13:22:56;100649.69;;;23.65;100.00
63027;BME280;59113;51.434;-2.004;2022-08-02T13:32:11;100643.31;;;23.84;100.00
63027;BME280;59113;51.434;-2.004;2022-08-02T13:34:36;100626.50;;;24.01;100.00
63027;BME280;59113;51.434;-2.004;2022-08-02T13:40:24;100620.25;;;24.45;100.00
63027;BME280;59113;51.434;-2.004;2022-08-02T13:42:49;100625.81;;;24.35;100.00
63027;BME280;59113;51.434;-2.004;2022-08-02T13:45:15;100612.63;;;24.71;100.00
63027;BME280;59113;51.434;-2.004;2022-08-02T13:47:42;100604.88;;;25.12;100.00
63027;BME280;59113;51.434;-2.004;2022-08-02T13:50:08;100605.59;;;25.52;100.00
63027;BME280;59113;51.434;-2.004;2022-08-02T13:52:34;100597.56;;;25.79;100.00
63027;BME280;59113;51.434;-2.004;2022-08-02T13:54:59;100605.44;;;26.10;100.00
63027;BME280;59113;51.434;-2.004;2022-08-02T14:00:47;100604.03;;;26.31;100.00
63027;BME280;59113;51.434;-2.004;2022-08-02T14:03:12;100607.72;;;26.46;100.00
63027;BME280;59113;51.434;-2.004;2022-08-02T14:05:40;100603.28;;;26.07;100.00
63027;BME280;59113;51.434;-2.004;2022-08-02T14:08:06;100596.31;;;26.33;100.00
63027;BME280;59113;51.434;-2.004;2022-08-02T14:10:33;100599.22;;;26.42;100.00
63027;BME280;59113;51.434;-2.004;2022-08-02T14:12:59;100596.81;;;26.35;100.00
63027;BME280;59113;51.434;-2.004;2022-08-02T14:15:24;100606.63;;;26.04;100.00
63027;BME280;59113;51.434;-2.004;2022-08-02T14:17:50;100598.47;;;25.75;100.00
63027;BME280;59113;51.434;-2.004;2022-08-02T14:20:15;100591.34;;;25.74;100.00
63027;BME280;59113;51.434;-2.004;2022-08-02T14:22:41;100590.97;;;25.57;100.00
63027;BME280;59113;51.434;-2.004;2022-08-02T14:25:06;100594.97;;;25.64;100.00
63027;BME280;59113;51.434;-2.004;2022-08-02T14:27:33;100591.97;;;25.13;100.00
63027;BME280;59113;51.434;-2.004;2022-08-02T14:29:59;100581.44;;;24.91;100.00
63027;BME280;59113;51.434;-2.004;2022-08-02T14:32:27;100573.34;;;25.34;100.00
63027;BME280;59113;51.434;-2.004;2022-08-02T14:34:52;100577.72;;;25.35;100.00
63027;BME280;59113;51.434;-2.004;2022-08-02T14:37:23;100572.56;;;25.28;100.00
63027;BME280;59113;51.434;-2.004;2022-08-02T14:39:48;100579.78;;;25.48;100.00
63027;BME280;59113;51.434;-2.004;2022-08-02T14:42:13;100572.34;;;25.72;100.00
63027;BME280;59113;51.434;-2.004;2022-08-02T14:44:39;100579.03;;;25.90;100.00
63027;BME280;59113;51.434;-2.004;2022-08-02T14:47:31;100580.44;;;26.25;100.00
63027;BME280;59113;51.434;-2.004;2022-08-02T14:49:57;100572.19;;;26.25;100.00
63027;BME280;59113;51.434;-2.004;2022-08-02T14:52:22;100572.25;;;26.20;100.00
63027;BME280;59113;51.434;-2.004;2022-08-02T14:54:48;100573.59;;;26.04;100.00
63027;BME280;59113;51.434;-2.004;2022-08-02T14:57:14;100570.25;;;26.07;100.00
63027;BME280;59113;51.434;-2.004;2022-08-02T14:59:40;100560.34;;;26.25;100.00
63027;BME280;59113;51.434;-2.004;2022-08-02T15:02:05;100560.94;;;26.59;100.00
63027;BME280;59113;51.434;-2.004;2022-08-02T15:04:33;100563.56;;;26.32;100.00
63027;BME280;59113;51.434;-2.004;2022-08-02T15:07:01;100566.19;;;26.42;100.00
63027;BME280;59113;51.434;-2.004;2022-08-02T15:09:27;100561.84;;;26.17;100.00
63027;BME280;59113;51.434;-2.004;2022-08-02T15:11:57;100557.22;;;26.13;100.00
63027;BME280;59113;51.434;-2.004;2022-08-02T15:14:23;100546.94;;;26.18;100.00
63027;BME280;59113;51.434;-2.004;2022-08-02T15:16:48;100545.84;;;25.81;100.00
63027;BME280;59113;51.434;-2.004;2022-08-02T15:19:14;100552.00;;;25.73;100.00
63027;BME280;59113;51.434;-2.004;2022-08-02T15:21:39;100547.38;;;25.88;100.00
63027;BME280;59113;51.434;-2.004;2022-08-02T15:24:05;100544.41;;;25.84;100.00
63027;BME280;59113;51.434;-2.004;2022-08-02T15:26:49;100551.72;;;25.70;100.00
63027;BME280;59113;51.434;-2.004;2022-08-02T15:29:16;100550.44;;;25.62;100.00
63027;BME280;59113;51.434;-2.004;2022-08-02T15:31:41;100539.06;;;25.69;100.00
63027;BME280;59113;51.434;-2.004;2022-08-02T15:34:09;100556.41;;;25.69;100.00
63027;BME280;59113;51.434;-2.004;2022-08-02T15:36:46;100531.31;;;26.32;100.00
63027;BME280;59113;51.434;-2.004;2022-08-02T15:39:12;100529.94;;;26.81;100.00
63027;BME280;59113;51.434;-2.004;2022-08-02T15:41:37;100533.56;;;26.96;100.00
63027;BME280;59113;51.434;-2.004;2022-08-02T15:44:03;100548.44;;;27.41;100.00
63027;BME280;59113;51.434;-2.004;2022-08-02T15:46:50;100540.78;;;27.79;100.00
63027;BME280;59113;51.434;-2.004;2022-08-02T15:49:16;100536.94;;;27.66;100.00
63027;BME280;59113;51.434;-2.004;2022-08-02T15:51:41;100537.91;;;27.29;100.00
63027;BME280;59113;51.434;-2.004;2022-08-02T15:54:07;100527.44;;;26.85;100.00
63027;BME280;59113;51.434;-2.004;2022-08-02T16:00:07;100537.28;;;26.40;100.00
63027;BME280;59113;51.434;-2.004;2022-08-02T16:02:34;100532.28;;;26.04;100.00
63027;BME280;59113;51.434;-2.004;2022-08-02T16:04:59;100533.25;;;26.13;100.00
63027;BME280;59113;51.434;-2.004;2022-08-02T16:07:26;100537.78;;;26.23;100.00
63027;BME280;59113;51.434;-2.004;2022-08-02T16:09:51;100538.31;;;26.06;100.00
63027;BME280;59113;51.434;-2.004;2022-08-02T16:12:17;100540.34;;;26.00;100.00
63027;BME280;59113;51.434;-2.004;2022-08-02T16:14:42;100536.69;;;25.62;100.00
63027;BME280;59113;51.434;-2.004;2022-08-02T16:17:27;100546.69;;;25.53;100.00
63027;BME280;59113;51.434;-2.004;2022-08-02T16:19:53;100534.59;;;25.06;100.00
63027;BME280;59113;51.434;-2.004;2022-08-02T16:22:18;100530.59;;;24.88;100.00
63027;BME280;59113;51.434;-2.004;2022-08-02T16:24:44;100529.13;;;25.01;100.00
63027;BME280;59113;51.434;-2.004;2022-08-02T16:27:09;100535.84;;;24.90;100.00
63027;BME280;59113;51.434;-2.004;2022-08-02T16:29:35;100532.16;;;24.99;100.00
63027;BME280;59113;51.434;-2.004;2022-08-02T16:32:02;100528.03;;;24.97;100.00
63027;BME280;59113;51.434;-2.004;2022-08-02T16:34:28;100535.94;;;25.09;100.00
63027;BME280;59113;51.434;-2.004;2022-08-02T16:40:22;100528.25;;;25.53;100.00
63027;BME280;59113;51.434;-2.004;2022-08-02T16:42:47;100535.00;;;25.66;100.00
63027;BME280;59113;51.434;-2.004;2022-08-02T16:45:14;100538.25;;;25.68;100.00
63027;BME280;59113;51.434;-2.004;2022-08-02T16:47:39;100533.88;;;25.67;100.00
63027;BME280;59113;51.434;-2.004;2022-08-02T16:50:05;100537.41;;;25.49;100.00
63027;BME280;59113;51.434;-2.004;2022-08-02T16:52:30;100534.06;;;25.28;100.00
63027;BME280;59113;51.434;-2.004;2022-08-02T16:54:56;100536.16;;;25.12;100.00
63027;BME280;59113;51.434;-2.004;2022-08-02T17:00:50;100529.75;;;24.64;100.00
63027;BME280;59113;51.434;-2.004;2022-08-02T17:03:15;100534.50;;;24.53;100.00
63027;BME280;59113;51.434;-2.004;2022-08-02T17:09:03;100536.00;;;24.69;100.00
63027;BME280;59113;51.434;-2.004;2022-08-02T17:11:28;100524.28;;;24.88;100.00
63027;BME280;59113;51.434;-2.004;2022-08-02T17:13:54;100541.84;;;24.92;100.00
63027;BME280;59113;51.434;-2.004;2022-08-02T17:19:53;100540.69;;;24.69;100.00
63027;BME280;59113;51.434;-2.004;2022-08-02T17:22:19;100539.44;;;24.56;100.00
63027;BME280;59113;51.434;-2.004;2022-08-02T17:24:44;100543.03;;;24.52;100.00
63027;BME280;59113;51.434;-2.004;2022-08-02T17:30:38;100541.84;;;24.24;100.00
63027;BME280;59113;51.434;-2.004;2022-08-02T17:33:03;100539.72;;;24.10;100.00
63027;BME280;59113;51.434;-2.004;2022-08-02T17:38:21;100534.50;;;23.59;100.00
63027;BME280;59113;51.434;-2.004;2022-08-02T17:40:46;100541.63;;;23.55;100.00
63027;BME280;59113;51.434;-2.004;2022-08-02T17:46:04;100536.13;;;23.66;100.00
63027;BME280;59113;51.434;-2.004;2022-08-02T17:51:30;100529.88;;;24.04;100.00
63027;BME280;59113;51.434;-2.004;2022-08-02T17:53:55;100524.22;;;24.30;100.00
63027;BME280;59113;51.434;-2.004;2022-08-02T17:59:53;100523.88;;;24.76;100.00
63027;BME280;59113;51.434;-2.004;2022-08-02T18:02:19;100534.13;;;24.94;100.00
63027;BME280;59113;51.434;-2.004;2022-08-02T18:04:46;100524.06;;;25.13;100.00
63027;BME280;59113;51.434;-2.004;2022-08-02T18:10:33;100526.47;;;25.20;100.00
63027;BME280;59113;51.434;-2.004;2022-08-02T18:12:58;100519.97;;;25.11;100.00
63027;BME280;59113;51.434;-2.004;2022-08-02T18:18:53;100523.72;;;24.91;100.00
63027;BME280;59113;51.434;-2.004;2022-08-02T18:21:18;100524.88;;;24.85;100.00
63027;BME280;59113;51.434;-2.004;2022-08-02T18:23:43;100511.66;;;24.58;100.00
63027;BME280;59113;51.434;-2.004;2022-08-02T18:33:17;100508.59;;;24.25;100.00
63027;BME280;59113;51.434;-2.004;2022-08-02T18:39:12;100501.28;;;23.71;100.00
63027;BME280;59113;51.434;-2.004;2022-08-02T18:41:37;100506.56;;;23.47;100.00
63027;BME280;59113;51.434;-2.004;2022-08-02T18:44:07;100506.59;;;23.37;100.00
63027;BME280;59113;51.434;-2.004;2022-08-02T18:46:35;100502.84;;;23.18;100.00
63027;BME280;59113;51.434;-2.004;2022-08-02T18:49:01;100501.22;;;23.07;100.00
63027;BME280;59113;51.434;-2.004;2022-08-02T18:51:30;100501.50;;;23.00;100.00
63027;BME280;59113;51.434;-2.004;2022-08-02T18:54:04;100496.88;;;22.75;100.00
63027;BME280;59113;51.434;-2.004;2022-08-02T18:59:52;100486.47;;;22.67;100.00
63027;BME280;59113;51.434;-2.004;2022-08-02T19:02:18;100496.34;;;22.68;100.00
63027;BME280;59113;51.434;-2.004;2022-08-02T19:04:43;100500.19;;;22.62;100.00
63027;BME280;59113;51.434;-2.004;2022-08-02T19:10:50;100494.19;;;22.29;100.00
63027;BME280;59113;51.434;-2.004;2022-08-02T19:13:15;100504.81;;;22.26;100.00
63027;BME280;59113;51.434;-2.004;2022-08-02T19:18:44;100497.97;;;22.08;100.00
63027;BME280;59113;51.434;-2.004;2022-08-02T19:21:09;100497.91;;;22.03;100.00
63027;BME280;59113;51.434;-2.004;2022-08-02T21:13:45;100552.13;;;19.83;100.00
